createdAt,value
2018-03-01T00:01:33.115Z,42.60
2018-03-01T00:04:00.594Z,43.30
2018-03-01T00:06:28.235Z,44.80
2018-03-01T00:08:55.975Z,39.08
2018-03-01T00:11:23.615Z,42.60
2018-03-01T00:13:52.627Z,44.85
2018-03-01T00:16:20.395Z,38.90
2018-03-01T00:18:47.889Z,38.50
2018-03-01T00:21:16.222Z,44.97
2018-03-01T00:23:43.841Z,38.60
2018-03-01T00:26:11.441Z,38.38
2018-03-01T00:28:39.008Z,40.30
2018-03-01T00:31:06.586Z,45.83
2018-03-01T00:33:34.236Z,37.20
2018-03-01T00:36:01.891Z,42.20
2018-03-01T00:38:29.546Z,44.40
2018-03-01T00:40:57.133Z,39.53
2018-03-01T00:43:24.811Z,38.15
2018-03-01T00:45:52.418Z,44.17
2018-03-01T00:48:20.054Z,35.47
2018-03-01T00:50:47.707Z,38.38
2018-03-01T00:53:15.983Z,34.63
2018-03-01T00:55:44.422Z,35.33
2018-03-01T00:58:12.039Z,37.92
2018-03-01T01:00:39.708Z,41.37
2018-03-01T01:03:07.194Z,39.85
2018-03-01T01:05:34.777Z,40.85
2018-03-01T01:08:02.408Z,51.15
2018-03-01T01:10:30.045Z,44.03
2018-03-01T01:12:57.587Z,40.42
2018-03-01T01:15:25.882Z,39.03
2018-03-01T01:17:53.648Z,37.22
2018-03-01T01:20:21.282Z,38.97
2018-03-01T01:22:48.777Z,42.95
2018-03-01T01:25:16.319Z,36.28
2018-03-01T01:27:44.041Z,33.40
2018-03-01T01:30:11.591Z,39.70
2018-03-01T01:32:39.240Z,41.78
2018-03-01T01:35:06.746Z,36.10
2018-03-01T01:37:34.233Z,38.38
2018-03-01T01:40:01.782Z,36.00
2018-03-01T01:42:30.050Z,38.33
2018-03-01T01:44:57.647Z,31.90
2018-03-01T01:47:25.319Z,33.92
2018-03-01T01:49:52.834Z,37.35
2018-03-01T01:52:22.105Z,33.80
2018-03-01T01:54:49.703Z,38.75
2018-03-01T01:57:17.992Z,34.67
2018-03-01T01:59:45.473Z,41.53
2018-03-01T02:02:12.966Z,33.90
2018-03-01T02:04:40.465Z,39.85
2018-03-01T02:07:08.087Z,32.72
2018-03-01T02:09:35.723Z,36.53
2018-03-01T02:12:03.360Z,31.33
2018-03-01T02:14:31.130Z,33.42
2018-03-01T02:16:58.642Z,33.58
2018-03-01T02:19:26.158Z,29.98
2018-03-01T02:21:53.700Z,37.17
2018-03-01T02:24:21.271Z,33.63
2018-03-01T02:26:48.871Z,36.35
2018-03-01T02:29:16.354Z,31.37
2018-03-01T02:31:44.629Z,37.97
2018-03-01T02:34:12.984Z,34.35
2018-03-01T02:36:41.372Z,36.22
2018-03-01T02:39:09.095Z,34.97
2018-03-01T02:41:36.684Z,32.95
2018-03-01T02:44:04.235Z,38.05
2018-03-01T02:46:32.251Z,32.33
2018-03-01T02:48:59.762Z,30.88
2018-03-01T02:51:27.255Z,29.52
2018-03-01T02:53:54.916Z,29.98
2018-03-01T02:56:22.500Z,28.42
2018-03-01T02:58:49.993Z,32.00
2018-03-01T03:01:17.562Z,32.38
2018-03-01T03:03:45.176Z,28.70
2018-03-01T03:06:12.880Z,33.67
2018-03-01T03:08:40.571Z,30.37
2018-03-01T03:11:08.148Z,36.63
2018-03-01T03:13:36.479Z,35.58
2018-03-01T03:16:04.123Z,31.75
2018-03-01T03:18:31.701Z,30.17
2018-03-01T03:20:59.302Z,31.20
2018-03-01T03:23:27.583Z,27.50
2018-03-01T03:25:55.074Z,32.38
2018-03-01T03:28:23.383Z,33.72
2018-03-01T03:30:51.022Z,34.28
2018-03-01T03:33:18.590Z,31.25
2018-03-01T03:35:46.203Z,30.65
2018-03-01T03:38:14.621Z,32.72
2018-03-01T03:40:42.771Z,36.38
2018-03-01T03:43:10.262Z,31.20
2018-03-01T03:45:37.802Z,31.55
2018-03-01T03:48:05.302Z,36.38
2018-03-01T03:50:32.784Z,29.35
2018-03-01T03:53:00.454Z,28.15
2018-03-01T03:55:27.989Z,30.75
2018-03-01T03:57:55.554Z,32.88
2018-03-01T04:00:23.149Z,25.12
2018-03-01T04:02:50.753Z,27.35
2018-03-01T04:05:19.399Z,28.95
2018-03-01T04:07:47.017Z,32.35
2018-03-01T04:10:14.541Z,32.60
2018-03-01T04:12:42.087Z,31.42
2018-03-01T04:15:09.647Z,24.48
2018-03-01T04:17:37.966Z,31.92
2018-03-01T04:20:05.515Z,25.95
2018-03-01T04:22:33.022Z,29.12
2018-03-01T04:25:01.445Z,28.25
2018-03-01T04:27:28.978Z,27.73
2018-03-01T04:29:57.382Z,28.55
2018-03-01T04:32:24.980Z,26.75
2018-03-01T04:34:52.576Z,27.00
2018-03-01T04:37:20.114Z,30.83
2018-03-01T04:39:47.621Z,35.15
2018-03-01T04:42:15.252Z,31.10
2018-03-01T04:44:42.833Z,35.10
2018-03-01T04:47:10.356Z,31.10
2018-03-01T04:49:38.700Z,33.58
2018-03-01T04:52:06.512Z,24.27
2018-03-01T04:54:35.749Z,29.73
2018-03-01T04:57:03.449Z,27.87
2018-03-01T04:59:31.736Z,27.17
2018-03-01T05:01:59.361Z,25.45
2018-03-01T05:04:26.964Z,26.33
2018-03-01T05:06:54.542Z,30.40
2018-03-01T05:09:22.857Z,28.92
2018-03-01T05:11:51.219Z,36.95
2018-03-01T05:14:18.907Z,26.65
2018-03-01T05:16:46.520Z,28.27
2018-03-01T05:19:14.129Z,33.58
2018-03-01T05:21:41.704Z,30.15
2018-03-01T05:24:09.319Z,28.10
2018-03-01T05:26:36.925Z,30.12
2018-03-01T05:29:05.085Z,23.65
2018-03-01T05:31:32.579Z,29.00
2018-03-01T05:34:00.914Z,26.45
2018-03-01T05:36:28.496Z,25.92
2018-03-01T05:38:57.554Z,29.63
2018-03-01T05:41:25.331Z,30.25
2018-03-01T05:43:53.026Z,27.55
2018-03-01T05:46:20.676Z,23.12
2018-03-01T05:48:48.230Z,27.77
2018-03-01T05:51:15.778Z,30.23
2018-03-01T05:53:43.357Z,29.55
2018-03-01T05:56:11.734Z,31.37
2018-03-01T05:58:39.356Z,31.27
2018-03-01T06:01:07.587Z,25.20
2018-03-01T06:03:35.173Z,30.02
2018-03-01T06:06:02.779Z,25.33
2018-03-01T06:08:30.469Z,25.75
2018-03-01T06:10:58.042Z,26.00
2018-03-01T06:13:26.466Z,29.15
2018-03-01T06:15:54.227Z,30.98
2018-03-01T06:18:21.785Z,21.37
2018-03-01T06:20:49.370Z,27.65
2018-03-01T06:23:17.032Z,42.92
2018-03-01T06:25:45.395Z,26.17
2018-03-01T06:28:12.990Z,31.58
2018-03-01T06:30:41.050Z,29.58
2018-03-01T06:33:08.634Z,29.10
2018-03-01T06:35:36.244Z,24.73
2018-03-01T06:38:03.840Z,27.23
2018-03-01T06:40:31.387Z,30.02
2018-03-01T06:42:59.006Z,27.23
2018-03-01T06:45:26.590Z,28.25
2018-03-01T06:47:54.122Z,26.85
2018-03-01T06:50:21.671Z,25.33
2018-03-01T06:52:49.265Z,38.50
2018-03-01T06:55:16.850Z,27.20
2018-03-01T06:57:44.389Z,27.62
2018-03-01T07:00:12.770Z,33.38
2018-03-01T07:02:40.330Z,26.52
2018-03-01T07:05:07.901Z,26.15
2018-03-01T07:07:35.398Z,28.52
2018-03-01T07:10:09.308Z,27.92
2018-03-01T07:12:46.233Z,26.75
2018-03-01T07:15:18.456Z,26.02
2018-03-01T07:17:49.292Z,23.55
2018-03-01T07:20:20.845Z,33.67
2018-03-01T07:22:52.523Z,32.60
2018-03-01T07:25:24.099Z,27.17
2018-03-01T07:27:55.060Z,28.35
2018-03-01T07:30:26.938Z,31.27
2018-03-01T07:32:57.482Z,30.67
2018-03-01T07:35:25.002Z,27.58
2018-03-01T07:37:52.518Z,26.40
2018-03-01T07:40:20.063Z,35.45
2018-03-01T07:42:47.587Z,22.60
2018-03-01T07:45:15.086Z,24.98
2018-03-01T07:47:43.337Z,25.80
2018-03-01T07:50:10.842Z,27.92
2018-03-01T07:52:38.326Z,27.35
2018-03-01T07:55:05.842Z,26.65
2018-03-01T07:57:34.122Z,28.38
2018-03-01T08:00:02.379Z,27.37
2018-03-01T08:02:29.886Z,25.70
2018-03-01T08:04:57.375Z,26.25
2018-03-01T08:07:24.881Z,27.23
2018-03-01T08:09:52.382Z,25.00
2018-03-01T08:12:19.871Z,27.87
2018-03-01T08:14:47.382Z,28.30
2018-03-01T08:17:14.879Z,25.58
2018-03-01T08:19:42.366Z,29.45
2018-03-01T08:22:10.647Z,22.67
2018-03-01T08:24:38.921Z,31.85
2018-03-01T08:27:06.424Z,32.13
2018-03-01T08:29:33.914Z,25.27
2018-03-01T08:32:01.426Z,28.50
2018-03-01T08:34:28.936Z,25.23
2018-03-01T08:36:56.410Z,30.27
2018-03-01T08:39:24.791Z,24.83
2018-03-01T08:41:53.096Z,26.08
2018-03-01T08:44:22.126Z,26.12
2018-03-01T08:46:49.624Z,29.35
2018-03-01T08:49:17.890Z,24.85
2018-03-01T08:51:45.403Z,26.55
2018-03-01T08:54:13.005Z,26.70
2018-03-01T08:56:40.563Z,28.10
2018-03-01T08:59:08.141Z,24.05
2018-03-01T09:01:36.410Z,27.05
2018-03-01T09:04:04.659Z,30.62
2018-03-01T09:06:32.157Z,32.13
2018-03-01T09:09:00.486Z,25.83
2018-03-01T09:11:27.978Z,25.12
2018-03-01T09:13:55.473Z,27.98
2018-03-01T09:16:22.962Z,24.80
2018-03-01T09:18:50.451Z,27.62
2018-03-01T09:21:17.935Z,23.15
2018-03-01T09:23:45.516Z,27.52
2018-03-01T09:26:13.950Z,24.30
2018-03-01T09:28:41.434Z,29.42
2018-03-01T09:31:08.939Z,28.35
2018-03-01T09:33:36.417Z,25.42
2018-03-01T09:36:03.909Z,24.42
2018-03-01T09:38:31.580Z,23.83
2018-03-01T09:40:59.054Z,24.80
2018-03-01T09:43:26.563Z,27.35
2018-03-01T09:45:54.970Z,22.30
2018-03-01T09:48:23.222Z,24.30
2018-03-01T09:50:51.483Z,30.23
2018-03-01T09:53:18.974Z,26.58
2018-03-01T09:55:47.218Z,24.17
2018-03-01T09:58:14.835Z,23.45
2018-03-01T10:00:42.343Z,22.37
2018-03-01T10:03:09.827Z,22.60
2018-03-01T10:05:38.199Z,22.25
2018-03-01T10:08:05.792Z,21.00
2018-03-01T10:10:33.287Z,25.33
2018-03-01T10:13:00.834Z,20.25
2018-03-01T10:15:28.378Z,23.20
2018-03-01T10:17:55.870Z,29.25
2018-03-01T10:20:23.394Z,22.58
2018-03-01T10:22:50.895Z,23.48
2018-03-01T10:25:18.376Z,23.02
2018-03-01T10:27:45.890Z,22.95
2018-03-01T10:30:13.389Z,22.87
2018-03-01T10:32:41.654Z,20.15
2018-03-01T10:35:09.906Z,24.35
2018-03-01T10:37:37.415Z,28.08
2018-03-01T10:40:05.756Z,24.42
2018-03-01T10:42:33.271Z,28.73
2018-03-01T10:45:00.774Z,24.52
2018-03-01T10:47:28.262Z,25.52
2018-03-01T10:49:56.542Z,25.20
2018-03-01T10:52:24.786Z,19.87
2018-03-01T10:54:53.802Z,24.25
2018-03-01T10:57:22.066Z,22.60
2018-03-01T10:59:49.559Z,19.50
2018-03-01T11:02:17.041Z,19.87
2018-03-01T11:04:44.618Z,22.75
2018-03-01T11:07:12.106Z,24.95
2018-03-01T11:09:40.354Z,25.27
2018-03-01T11:12:07.867Z,27.65
2018-03-01T11:14:35.346Z,32.80
2018-03-01T11:17:02.839Z,22.42
2018-03-01T11:19:30.381Z,25.62
2018-03-01T11:21:57.854Z,26.08
2018-03-01T11:24:25.340Z,21.50
2018-03-01T11:26:53.647Z,24.20
2018-03-01T11:29:21.135Z,23.12
2018-03-01T11:31:48.610Z,19.80
2018-03-01T11:34:16.099Z,20.88
2018-03-01T11:36:44.345Z,31.83
2018-03-01T11:39:11.885Z,27.17
2018-03-01T11:41:39.463Z,28.67
2018-03-01T11:44:06.947Z,29.40
2018-03-01T11:46:34.433Z,19.90
2018-03-01T11:49:01.926Z,26.75
2018-03-01T11:51:29.457Z,21.00
2018-03-01T11:53:56.930Z,25.30
2018-03-01T11:56:24.414Z,22.85
2018-03-01T11:58:51.904Z,22.20
2018-03-01T12:01:20.191Z,29.85
2018-03-01T12:03:47.670Z,22.92
2018-03-01T12:06:15.150Z,30.52
2018-03-01T12:08:42.862Z,22.65
2018-03-01T12:11:11.122Z,21.20
2018-03-01T12:13:38.610Z,21.42
2018-03-01T12:16:06.098Z,18.27
2018-03-01T12:18:33.615Z,25.17
2018-03-01T12:21:01.863Z,26.15
2018-03-01T12:23:29.343Z,19.92
2018-03-01T12:25:57.614Z,24.00
2018-03-01T12:28:25.862Z,26.73
2018-03-01T12:30:53.350Z,21.55
2018-03-01T12:33:21.630Z,23.00
2018-03-01T12:35:49.879Z,25.15
2018-03-01T12:38:17.395Z,23.77
2018-03-01T12:40:44.907Z,27.80
2018-03-01T12:43:12.394Z,21.37
2018-03-01T12:45:39.882Z,24.17
2018-03-01T12:48:07.386Z,22.77
2018-03-01T12:50:34.884Z,24.95
2018-03-01T12:53:02.403Z,26.02
2018-03-01T12:55:29.887Z,23.38
2018-03-01T12:57:57.418Z,27.55
2018-03-01T13:00:24.893Z,19.90
2018-03-01T13:02:53.144Z,23.12
2018-03-01T13:05:21.546Z,23.45
2018-03-01T13:07:49.794Z,24.83
2018-03-01T13:10:17.273Z,22.77
2018-03-01T13:12:45.591Z,18.48
2018-03-01T13:15:13.104Z,23.50
2018-03-01T13:17:41.301Z,28.58
2018-03-01T13:20:09.562Z,24.20
2018-03-01T13:22:37.818Z,20.55
2018-03-01T13:25:05.336Z,23.00
2018-03-01T13:27:32.854Z,18.83
2018-03-01T13:30:01.767Z,26.35
2018-03-01T13:32:31.178Z,24.55
2018-03-01T13:35:05.367Z,28.23
2018-03-01T13:37:33.618Z,33.92
2018-03-01T13:40:01.142Z,29.83
2018-03-01T13:42:28.776Z,21.33
2018-03-01T13:44:57.027Z,19.00
2018-03-01T13:50:24.617Z,23.62
2018-03-01T13:52:52.126Z,27.58
2018-03-01T13:55:19.654Z,19.25
2018-03-01T13:57:47.909Z,22.58
2018-03-01T14:00:15.474Z,22.08
2018-03-01T14:02:42.978Z,18.77
2018-03-01T14:05:11.335Z,21.35
2018-03-01T14:07:44.474Z,25.10
2018-03-01T14:10:11.957Z,25.10
2018-03-01T14:12:55.261Z,26.33
2018-03-01T14:15:22.754Z,24.25
2018-03-01T14:17:54.631Z,17.77
2018-03-01T14:20:27.870Z,19.58
2018-03-01T14:23:11.217Z,22.58
2018-03-01T14:25:38.804Z,26.75
2018-03-01T14:28:07.577Z,23.38
2018-03-01T14:30:35.830Z,20.83
2018-03-01T14:33:03.403Z,29.23
2018-03-01T14:35:30.895Z,21.27
2018-03-01T14:37:58.543Z,18.62
2018-03-01T14:40:26.831Z,17.90
2018-03-01T14:42:55.630Z,21.20
2018-03-01T14:45:23.117Z,23.52
2018-03-01T14:47:50.679Z,21.65
2018-03-01T14:50:18.190Z,21.17
2018-03-01T14:52:46.441Z,21.67
2018-03-01T14:55:13.956Z,21.10
2018-03-01T14:57:41.458Z,20.60
2018-03-01T15:00:08.954Z,22.13
2018-03-01T15:02:36.454Z,23.42
2018-03-01T15:05:03.939Z,23.10
2018-03-01T15:07:31.414Z,24.73
2018-03-01T15:09:59.682Z,20.50
2018-03-01T15:12:27.218Z,23.48
2018-03-01T15:14:54.803Z,23.95
2018-03-01T15:17:23.103Z,24.73
2018-03-01T15:19:50.609Z,25.75
2018-03-01T15:22:18.107Z,20.85
2018-03-01T15:24:46.486Z,22.90
2018-03-01T15:27:14.767Z,19.90
2018-03-01T15:29:42.291Z,15.70
2018-03-01T15:32:09.807Z,15.65
2018-03-01T15:34:37.282Z,19.62
2018-03-01T15:37:04.837Z,23.65
2018-03-01T15:39:32.374Z,19.45
2018-03-01T15:41:59.862Z,24.65
2018-03-01T15:44:27.346Z,21.77
2018-03-01T15:46:54.939Z,23.00
2018-03-01T15:49:23.250Z,24.77
2018-03-01T15:51:50.762Z,23.80
2018-03-01T15:54:18.304Z,25.75
2018-03-01T15:56:45.795Z,22.00
2018-03-01T15:59:14.042Z,27.75
2018-03-01T16:01:41.554Z,23.23
2018-03-01T16:04:09.038Z,25.52
2018-03-01T16:06:36.541Z,27.10
2018-03-01T16:09:04.814Z,22.02
2018-03-01T16:11:33.069Z,25.25
2018-03-01T16:14:00.590Z,22.27
2018-03-01T16:16:28.078Z,23.25
2018-03-01T16:18:55.573Z,17.87
2018-03-01T16:21:23.116Z,28.33
2018-03-01T16:23:51.378Z,20.75
2018-03-01T16:26:18.868Z,20.80
2018-03-01T16:28:47.134Z,21.23
2018-03-01T16:31:15.384Z,24.27
2018-03-01T16:33:42.866Z,21.42
2018-03-01T16:36:11.138Z,21.95
2018-03-01T16:38:38.644Z,18.42
2018-03-01T16:41:06.187Z,20.67
2018-03-01T16:43:33.698Z,18.12
2018-03-01T16:46:01.240Z,17.52
2018-03-01T16:48:28.691Z,23.58
2018-03-01T16:50:56.223Z,28.90
2018-03-01T16:53:23.707Z,19.45
2018-03-01T16:55:51.202Z,22.83
2018-03-01T16:58:18.880Z,26.50
2018-03-01T17:00:47.150Z,22.75
2018-03-01T17:03:14.626Z,20.40
2018-03-01T17:05:42.893Z,19.10
2018-03-01T17:08:11.146Z,21.87
2018-03-01T17:10:38.628Z,25.42
2018-03-01T17:13:07.098Z,16.00
2018-03-01T17:15:34.629Z,24.35
2018-03-01T17:18:02.087Z,26.17
2018-03-01T17:20:29.790Z,21.52
2018-03-01T17:22:58.168Z,24.33
2018-03-01T17:25:27.462Z,25.70
2018-03-01T17:27:56.130Z,22.35
2018-03-01T17:30:23.700Z,18.25
2018-03-01T17:32:51.178Z,18.65
2018-03-01T17:35:19.431Z,23.00
2018-03-01T17:37:46.968Z,16.70
2018-03-01T17:40:14.459Z,21.58
2018-03-01T17:42:41.937Z,20.27
2018-03-01T17:45:10.305Z,25.88
2018-03-01T17:47:38.644Z,18.75
2018-03-01T17:50:06.130Z,21.20
2018-03-01T17:52:33.715Z,19.77
2018-03-01T17:55:01.342Z,20.35
2018-03-01T17:57:28.832Z,22.58
2018-03-01T17:59:57.114Z,24.00
2018-03-01T18:02:24.630Z,20.27
2018-03-01T18:04:52.156Z,20.90
2018-03-01T18:07:19.641Z,24.98
2018-03-01T18:09:47.130Z,18.15
2018-03-01T18:12:15.386Z,21.37
2018-03-01T18:14:42.896Z,22.48
2018-03-01T18:17:10.382Z,26.80
2018-03-01T18:19:37.862Z,21.23
2018-03-01T18:22:05.358Z,26.08
2018-03-01T18:24:32.835Z,25.37
2018-03-01T18:27:00.335Z,21.37
2018-03-01T18:29:27.827Z,19.25
2018-03-01T18:31:57.080Z,36.70
2018-03-01T18:34:24.586Z,19.30
2018-03-01T18:36:52.118Z,19.02
2018-03-01T18:39:19.602Z,21.48
2018-03-01T18:41:47.862Z,18.73
2018-03-01T18:44:15.360Z,20.25
2018-03-01T18:46:42.855Z,23.15
2018-03-01T18:49:10.340Z,24.83
2018-03-01T18:54:12.498Z,19.20
2018-03-01T18:56:39.980Z,20.75
2018-03-01T18:59:07.469Z,22.62
2018-03-01T19:01:34.981Z,23.77
2018-03-01T19:04:02.494Z,17.58
2018-03-01T19:06:29.986Z,23.65
2018-03-01T19:08:57.546Z,20.12
2018-03-01T19:11:25.810Z,23.10
2018-03-01T19:13:53.295Z,24.17
2018-03-01T19:16:20.794Z,20.77
2018-03-01T19:18:48.294Z,25.67
2018-03-01T19:21:16.546Z,19.62
2018-03-01T19:23:44.120Z,20.52
2018-03-01T19:26:11.665Z,18.92
2018-03-01T19:28:39.151Z,20.88
2018-03-01T19:31:06.749Z,27.35
2018-03-01T19:33:35.010Z,25.75
2018-03-01T19:36:02.502Z,22.08
2018-03-01T19:38:30.039Z,23.17
2018-03-01T19:40:58.319Z,25.98
2018-03-01T19:43:26.570Z,21.00
2018-03-01T19:45:54.079Z,19.73
2018-03-01T19:48:21.580Z,28.20
2018-03-01T19:50:49.114Z,18.95
2018-03-01T19:53:16.615Z,27.02
2018-03-01T19:55:44.125Z,21.15
2018-03-01T19:58:11.606Z,24.40
2018-03-01T20:00:39.110Z,22.50
2018-03-01T20:03:07.384Z,21.90
2018-03-01T20:05:35.729Z,28.60
2018-03-01T20:08:03.214Z,26.45
2018-03-01T20:10:30.759Z,24.20
2018-03-01T20:12:58.357Z,26.83
2018-03-01T20:15:25.870Z,26.83
2018-03-01T20:17:53.411Z,26.15
2018-03-01T20:20:20.895Z,23.17
2018-03-01T20:22:48.425Z,20.20
2018-03-01T20:25:15.922Z,23.55
2018-03-01T20:27:43.441Z,26.62
2018-03-01T20:30:11.012Z,21.67
2018-03-01T20:32:38.499Z,25.20
2018-03-01T20:35:05.982Z,24.30
2018-03-01T20:37:34.258Z,25.15
2018-03-01T20:40:02.526Z,22.10
2018-03-01T20:42:30.861Z,27.73
2018-03-01T20:44:58.400Z,26.48
2018-03-01T20:47:26.292Z,28.30
2018-03-01T20:49:53.786Z,22.08
2018-03-01T20:52:22.079Z,26.12
2018-03-01T20:54:50.361Z,24.20
2018-03-01T20:57:17.854Z,24.05
2018-03-01T20:59:45.431Z,22.73
2018-03-01T21:02:12.918Z,27.45
2018-03-01T21:04:41.182Z,29.42
2018-03-01T21:07:08.680Z,25.20
2018-03-01T21:09:36.162Z,24.52
2018-03-01T21:12:03.654Z,28.20
2018-03-01T21:14:31.163Z,26.10
2018-03-01T21:16:58.663Z,26.83
2018-03-01T21:19:26.157Z,25.88
2018-03-01T21:21:54.447Z,32.45
2018-03-01T21:24:21.976Z,27.15
2018-03-01T21:26:49.475Z,31.12
2018-03-01T21:29:16.994Z,22.05
2018-03-01T21:31:44.479Z,25.83
2018-03-01T21:34:11.962Z,26.70
2018-03-01T21:36:39.466Z,31.33
2018-03-01T21:39:06.955Z,22.13
2018-03-01T21:41:34.439Z,27.90
2018-03-01T21:44:01.979Z,29.63
2018-03-01T21:46:29.483Z,27.95
2018-03-01T21:48:56.975Z,27.77
2018-03-01T21:51:24.490Z,34.65
2018-03-01T21:53:51.978Z,30.92
2018-03-01T21:56:19.532Z,27.10
2018-03-01T21:58:47.161Z,32.05
2018-03-01T22:01:14.783Z,30.77
2018-03-01T22:03:42.351Z,28.87
2018-03-01T22:06:09.956Z,34.42
2018-03-01T22:08:37.529Z,30.55
2018-03-01T22:11:05.117Z,33.00
2018-03-01T22:13:33.598Z,31.45
2018-03-01T22:16:03.278Z,30.70
2018-03-01T22:18:32.139Z,26.65
2018-03-01T22:21:00.025Z,29.37
2018-03-01T22:23:27.596Z,34.75
2018-03-01T22:25:55.285Z,31.10
2018-03-01T22:28:22.905Z,34.58
2018-03-01T22:30:50.438Z,27.45
2018-03-01T22:33:18.007Z,31.60
2018-03-01T22:35:45.589Z,27.42
2018-03-01T22:38:13.211Z,29.67
2018-03-01T22:40:40.896Z,32.35
2018-03-01T22:43:08.470Z,30.33
2018-03-01T22:45:37.221Z,32.15
2018-03-01T22:48:10.560Z,32.17
2018-03-01T22:50:48.518Z,30.42
2018-03-01T22:53:20.144Z,30.52
2018-03-01T22:55:54.789Z,28.35
2018-03-01T22:58:25.530Z,29.42
2018-03-01T23:00:56.563Z,25.65
2018-03-01T23:03:27.628Z,29.35
2018-03-01T23:06:05.210Z,29.45
2018-03-01T23:08:34.159Z,27.33
2018-03-01T23:11:02.141Z,28.05
2018-03-01T23:13:29.658Z,33.38
2018-03-01T23:15:57.142Z,28.30
2018-03-01T23:18:24.672Z,29.80
2018-03-01T23:20:52.178Z,30.85
2018-03-01T23:23:19.662Z,33.53
2018-03-01T23:25:47.930Z,30.08
2018-03-01T23:28:16.207Z,30.75
2018-03-01T23:30:44.458Z,30.20
2018-03-01T23:33:11.991Z,28.83
2018-03-01T23:35:39.567Z,31.80
2018-03-01T23:38:07.051Z,23.95
2018-03-01T23:40:35.351Z,32.08
2018-03-01T23:43:02.838Z,31.10
2018-03-01T23:45:30.329Z,31.00
2018-03-01T23:47:57.848Z,30.05
2018-03-01T23:50:25.351Z,28.35
2018-03-01T23:52:52.902Z,31.37
2018-03-01T23:55:20.427Z,30.05
2018-03-01T23:57:47.922Z,33.70
